GYY weather

Gary Chicago International Airport
Gary, Indiana, United States

Public forecast

Using degrees Fahrenheit for public forecast. Weather courtesy of forecast.io.

METAR (pilot weather report)

Retrieved 2019/05/23 10:45 UTC (28 minutes ago):

KGYY 231045Z 26012G22KT 10SM SCT012 BKN032 20/19 A2994

TAF (pilot weather forecast)

Retrieved 2019/05/23 06:22 UTC (5 hours ago):

TAF KGYY 230520Z 2306/2406 20012G20KT 6SM -SHRA VCTS BKN040CB OVC070 TEMPO 2307/2309 24020G30KT 1SM +TSRA BR OVC020CB FM231000 25010KT P6SM BKN035 OVC250 FM231500 27015G25KT P6SM FEW040 SCT250 FM240000 32007KT P6SM FEW070 BKN250 FM240300 03007KT P6SM FEW070 BKN250